White Mountain Summit Weather observations

Data are for 10 minute period ending at time listed.
 Day   Time   Solar   Ave.   Ave.  Ave.  Vector    Max.    Baro.  
  of    of     Rad.   Air    Rel.  Wind   Wind     Wind   Press.  
Year   Day            Temp.  Hum.  Speed  Dir.     Gust           
2014   (PST)   W/m2    F      %     mph   deg.      mph     mb.   
-------------------------------------------------------------------
 240    0:20    0.0    38   49.4     9    341.8    11.8   999.0 
 240    0:30    0.0    38   50.3    11    340.2    14.1   999.0 
 240    0:40    0.0    38   50.4    10    339.4    11.8   999.0 
 240    0:50    0.0    38   50.0     9    339.4    14.1   999.0 
 240    1:00    0.0    37   50.6     9    339.4    11.8   999.0 
 240    1:10    0.0    37   49.6     6    339.4     9.4   999.0 
 240    1:20    0.0    38   49.3     8    339.4     9.4   999.0 
 240    1:30    0.0    37   51.4     8    339.4     9.4   999.0 
 240    1:40    0.0    37   52.0     8    339.4     9.4   999.0 
 240    1:50    0.0    36   52.6     5    339.4     7.1   999.0 
 240    2:00    0.0    37   52.1     5    339.4     7.1   999.0 
 240    2:10    0.0    37   52.0     4    339.4     7.1   999.0 
 240    2:20    0.0    37   51.7     4    339.3     7.1   999.0 
 240    2:30    0.0    37   51.5     3    339.3     4.7   999.0 
 240    2:40    0.0    37   51.2     2    339.4     4.7   999.0 
 240    2:50    0.0    37   52.5     5    339.4     7.1   999.0 
 240    3:00    0.0    36   53.1     3    339.4     7.1   999.0 
 240    3:10    0.0    36   47.9     0    339.4     2.4   999.0 
 240    3:20    0.0    37   38.2     2    339.4     4.7   999.0 
 240    3:30    0.0    37   40.7     2    339.4     4.7   999.0 
 240    3:40    0.0    37   31.4    10    250.4    18.8   999.0 
 240    3:50    0.0    39   20.5    18    251.9    23.5   999.0 
 240    4:00    0.0    39   22.1    16    248.7    21.2   999.0 
 240    4:10    0.0    39   21.8    17    252.6    21.2   999.0 
 240    4:20    0.0    39   23.0    20    257.2    21.2   999.0 
 240    4:30    0.0    38   25.6    21    261.0    25.9   999.0 
 240    4:40    0.0    38   27.7    20    265.5    25.9   999.0 
 240    4:50    0.0    38   31.0    24    269.4    25.9   999.0 
 240    5:00    0.0    38   31.1    26    269.5    28.2   999.0 
 240    5:10    0.0    38   31.4    25    270.7    28.2   999.0 
 240    5:20    0.0    38   32.7    24    271.9    25.9   999.0 
 240    5:30    0.0    38   33.9    23    271.8    25.9   999.0 
 240    5:40    0.0    37   34.7    19    271.7    23.5   999.0 
 240    5:50    0.0    37   35.3    18    270.2    21.2   999.0 
 240    6:00    0.0    37   36.2    18    267.4    18.8   999.0 
 240    6:10    0.0    37   37.6    18    266.9    21.2   999.0 
 240    6:20    0.0    37   39.2    20    266.9    21.2   999.0 
 240    6:30    0.0    37   40.5    20    271.1    23.5   999.0 
 240    6:40    0.0    37   41.0    15    272.9    21.2   999.0 
 240    6:50    0.0    37   41.0    12    276.9    14.1   999.0 
 240    7:00    0.0    38   41.6    10    278.0    14.1   999.0 
 240    7:10    0.0    38   41.3     8    278.4    11.8   999.0 
 240    7:20    0.0    39   40.1     9    280.4    11.8   999.0 
 240    7:30    0.0    40   38.8     7    281.0     9.4   999.0 
 240    7:40    0.0    41   38.1     4    280.9     7.1   999.0 
 240    7:50    0.0    42   37.1     3    281.2     4.7   999.0 
 240    8:00    0.0    42   38.9     4    300.8     7.1   999.0 
 240    8:10    0.0    42   38.1     4    312.4     9.4   999.0 
 240    8:20    0.0    42   37.8     3    330.6     9.4   999.0 
 240    8:30    0.0    43   39.2     4    140.9     9.4   999.0 
 240    8:40    0.0    42   39.0     3    148.8     4.7   999.0 
 240    8:50    0.0    42   39.0     5    149.0     9.4   999.0 
 240    9:00    0.0    42   36.6     4    149.4     7.1   999.0 
 240    9:10    0.0    42   36.7     5    150.2     7.1   999.0 
 240    9:20    0.0    42   38.3     6    152.9     9.4   999.0 
 240    9:30    0.0    44   38.7     5    153.7     7.1   999.0 
 240    9:40    0.0    44   38.2     4    161.7     9.4   999.0 
 240    9:50    0.0    45   37.8     5    165.6     9.4   999.0 
 240   10:00    0.0    47   35.9     5    163.1     9.4   999.0 
 240   10:10    0.0    47   35.9     4    153.4     7.1   999.0 
 240   10:20    0.0    48   35.4     5    161.3     9.4   999.0 
 240   10:30    0.0    47   36.8     6    173.8    14.1   999.0 
 240   10:40    0.0    46   37.5     8    212.8    11.8   999.0 
 240   10:50    0.0    45   39.1     8    221.6    11.8   999.0 
 240   11:00    0.0    46   38.0     6    256.0     9.4   999.0 
 240   11:10    0.0    47   36.7     6    213.6    11.8   999.0 
 240   11:20    0.0    49   35.0     9    284.8    14.1   999.0 
 240   11:30    0.0    50   34.0    10    270.8    16.5   999.0 
 240   11:40    0.0    48   34.9     8    213.6    11.8   999.0 
 240   11:50    0.0    49   34.4     9    268.6    14.1   999.0 
 240   12:00    0.0    52   32.4    11    254.9    16.5   999.0 
 240   12:10    0.0    51   31.4     8    262.1    11.8   999.0 
 240   12:20    0.0    50   32.1    10    250.3    16.5   999.0 
 240   12:30    0.0    52   30.8    12    244.2    16.5   999.0 
 240   12:40    0.0    53   29.9    12    244.9    18.8   999.0 
 240   12:50    0.0    53   28.9    11    254.0    16.5   999.0 
 240   13:00    0.0    54   27.0    11    258.2    18.8   999.0 
 240   13:10    0.0    55   25.4    12    276.0    16.5   999.0 
 240   13:20    0.0    55   25.0    11    274.9    18.8   999.0 
 240   13:30    0.0    55   24.6    13    264.2    18.8   999.0 
 240   13:40    0.0    54   25.7    14    275.6    21.2   999.0 
 240   13:50    0.0    54   26.2    14    274.3    21.2   999.0 
 240   14:00    0.0    54   27.0    16    273.5    21.2   999.0 
 240   14:10    0.0    55   26.7    16    270.0    21.2   999.0 
 240   14:20    0.0    54   27.3    15    271.6    21.2   999.0 
 240   14:30    0.0    54   27.5    18    269.3    25.9   999.0 
 240   14:40    0.0    53   27.8    20    270.8    25.9   999.0 
 240   14:50    0.0    54   27.9    21    266.3    25.9   999.0 
 240   15:00    0.0    55   27.5    18    267.3    23.5   999.0 
 240   15:10    0.0    54   29.0    18    275.2    25.9   999.0 
 240   15:20    0.0    53   29.6    21    274.2    28.2   999.0 
 240   15:30    0.0    53   29.5    20    266.1    25.9   999.0 
 240   15:40    0.0    54   28.8    19    269.0    30.6   999.0 
 240   15:50    0.0    54   29.0    21    265.5    28.2   999.0 
 240   16:00    0.0    54   29.1    21    265.8    28.2   999.0 
 240   16:10    0.0    53   28.9    23    266.0    30.6   999.0 
 240   16:20    0.0    53   29.3    23    267.0    30.6   999.0 
 240   16:30    0.0    53   29.0    23    269.2    30.6   999.0 
 240   16:40    0.0    52   29.4    24    263.7    33.0   999.0 
 240   16:50    0.0    52   30.0    25    265.7    33.0   999.0 
 240   17:00    0.0    52   30.9    23    268.9    30.6   999.0 
 240   17:10    0.0    52   30.8    26    264.2    35.3   999.0 
 240   17:20    0.0    51   31.7    22    265.4    28.2   999.0 
 240   17:30    0.0    51   31.5    24    264.8    33.0   999.0 
 240   17:40    0.0    50   32.2    23    272.3    30.6   999.0 
 240   17:50    0.0    50   33.2    26    267.1    33.0   999.0 
 240   18:00    0.0    50   33.0    24    267.1    35.3   999.0 
 240   18:10    0.0    49   33.7    20    271.1    28.2   999.0 
 240   18:20    0.0    48   34.1    20    266.5    25.9   999.0 
 240   18:30    0.0    48   34.5    16    266.2    21.2   999.0 
 240   18:40    0.0    47   35.1    13    267.5    18.8   999.0 
 240   18:50    0.0    46   36.5    14    267.6    18.8   999.0 
 240   19:00    0.0    46   37.0    14    267.9    18.8   999.0 
 240   19:10    0.0    46   37.8    10    268.0    14.1   999.0 
 240   19:20    0.0    45   38.4     7    268.0    11.8   999.0 
 240   19:30    0.0    46   38.2     8    268.4    11.8   999.0 
 240   19:40    0.0    46   38.4     6    268.8    11.8   999.0 
 240   19:50    0.0    45   38.8     9    269.3    11.8   999.0 
 240   20:00    0.0    45   39.6     8    269.5    11.8   999.0 
 240   20:10    0.0    45   39.8     9    269.5    11.8   999.0 
 240   20:20    0.0    44   40.5     6    269.6     9.4   999.0 
 240   20:30    0.0    44   40.7     8    269.6     9.4   999.0 
 240   20:40    0.0    44   40.9     6    269.6     9.4   999.0 
 240   20:50    0.0    44   41.0     7    269.6     9.4   999.0 
 240   21:00    0.0    43   41.6     6    269.6     9.4   999.0 
 240   21:10    0.0    43   41.9     5    269.6     7.1   999.0 
 240   21:20    0.0    44   41.5     6    269.9     7.1   999.0 
 240   21:30    0.0    44   41.5     6    270.5     7.1   999.0 
 240   21:40    0.0    43   41.5     4    270.5     7.1   999.0 
 240   21:50    0.0    43   41.5     6    270.8     7.1   999.0 
 240   22:00    0.0    43   42.0     3    271.0     4.7   999.0 
 240   22:10    0.0    43   42.1     4    271.3     7.1   999.0 
 240   22:20    0.0    43   42.2     5    272.2     7.1   999.0 
 240   22:30    0.0    43   42.2     3    273.4     4.7   999.0 
 240   22:40    0.0    43   42.2     2    273.4     4.7   999.0 
 240   22:50    0.0    43   42.3     2    273.4     4.7   999.0 
 240   23:00    0.0    43   42.4     2    273.4     4.7   999.0 
 240   23:10    0.0    43   42.7     3    273.4     7.1   999.0 
 240   23:20    0.0    43   43.0     4    273.4     7.1   999.0 
 240   23:30    0.0    42   42.5     0    273.4     2.4   999.0 
 240   23:40    0.0    42   43.0     1    273.6     4.7   999.0 
 240   23:50    0.0    42   43.5     2    273.7     4.7   999.0 
 241    0:00    0.0    41   43.6     2    273.7     2.4   999.0 
 241    0:10    0.0    41   44.5     0    273.7     2.4   999.0 

Return to White Mountain graphs page.


Western Regional Climate Center,wrcc@dri.edu